sensor_id;sensor_type;location;lat;lon;timestamp;pressure;altitude;pressure_sealevel;temperature;humidity
20009;BME280;10165;42.662;23.260;2022-12-07T00:01:33;94100.97;;;9.01;67.85
20009;BME280;10165;42.662;23.260;2022-12-07T00:04:01;94093.75;;;9.13;67.44
20009;BME280;10165;42.662;23.260;2022-12-07T00:06:36;94088.66;;;9.08;67.57
20009;BME280;10165;42.662;23.260;2022-12-07T00:09:07;94081.31;;;9.30;66.80
20009;BME280;10165;42.662;23.260;2022-12-07T00:11:35;94079.63;;;9.37;66.79
20009;BME280;10165;42.662;23.260;2022-12-07T00:14:07;94088.09;;;9.03;67.30
20009;BME280;10165;42.662;23.260;2022-12-07T00:16:34;94086.69;;;8.81;67.71
20009;BME280;10165;42.662;23.260;2022-12-07T00:19:02;94082.31;;;9.01;68.10
20009;BME280;10165;42.662;23.260;2022-12-07T00:21:34;94082.34;;;8.89;68.11
20009;BME280;10165;42.662;23.260;2022-12-07T00:24:02;94085.88;;;9.05;67.60
20009;BME280;10165;42.662;23.260;2022-12-07T00:26:38;94082.47;;;8.92;68.26
20009;BME280;10165;42.662;23.260;2022-12-07T00:29:07;94085.44;;;9.03;67.98
20009;BME280;10165;42.662;23.260;2022-12-07T00:31:36;94089.09;;;9.23;67.47
20009;BME280;10165;42.662;23.260;2022-12-07T00:34:06;94086.22;;;9.16;67.29
20009;BME280;10165;42.662;23.260;2022-12-07T00:36:33;94072.44;;;9.01;67.54
20009;BME280;10165;42.662;23.260;2022-12-07T00:39:01;94073.59;;;8.88;68.43
20009;BME280;10165;42.662;23.260;2022-12-07T00:41:29;94091.75;;;8.74;68.99
20009;BME280;10165;42.662;23.260;2022-12-07T00:43:57;94093.53;;;8.94;68.96
20009;BME280;10165;42.662;23.260;2022-12-07T00:46:24;94089.34;;;8.81;69.18
20009;BME280;10165;42.662;23.260;2022-12-07T00:48:52;94086.44;;;8.74;69.49
20009;BME280;10165;42.662;23.260;2022-12-07T00:51:22;94082.88;;;8.82;69.23
20009;BME280;10165;42.662;23.260;2022-12-07T00:53:49;94082.00;;;8.90;68.71
20009;BME280;10165;42.662;23.260;2022-12-07T00:56:26;94088.56;;;8.81;68.82
20009;BME280;10165;42.662;23.260;2022-12-07T00:58:55;94085.53;;;8.46;69.91
20009;BME280;10165;42.662;23.260;2022-12-07T01:01:24;94094.88;;;8.64;70.18
20009;BME280;10165;42.662;23.260;2022-12-07T01:03:51;94084.00;;;8.69;70.14
20009;BME280;10165;42.662;23.260;2022-12-07T01:06:19;94086.78;;;8.85;69.57
20009;BME280;10165;42.662;23.260;2022-12-07T01:08:46;94079.56;;;8.61;70.48
20009;BME280;10165;42.662;23.260;2022-12-07T01:11:15;94074.31;;;9.13;69.01
20009;BME280;10165;42.662;23.260;2022-12-07T01:13:43;94077.53;;;9.31;68.22
20009;BME280;10165;42.662;23.260;2022-12-07T01:16:12;94073.59;;;9.00;68.91
20009;BME280;10165;42.662;23.260;2022-12-07T01:18:40;94067.13;;;8.89;68.91
20009;BME280;10165;42.662;23.260;2022-12-07T01:21:15;94063.25;;;8.99;68.58
20009;BME280;10165;42.662;23.260;2022-12-07T01:23:43;94071.47;;;8.94;68.75
20009;BME280;10165;42.662;23.260;2022-12-07T01:26:12;94066.59;;;8.96;68.97
20009;BME280;10165;42.662;23.260;2022-12-07T01:28:39;94052.78;;;9.18;68.15
20009;BME280;10165;42.662;23.260;2022-12-07T01:31:12;94051.81;;;8.98;68.46
20009;BME280;10165;42.662;23.260;2022-12-07T01:33:47;94054.38;;;8.83;68.49
20009;BME280;10165;42.662;23.260;2022-12-07T01:38:46;94060.06;;;8.69;69.41
20009;BME280;10165;42.662;23.260;2022-12-07T01:54:21;94053.03;;;9.53;66.00
20009;BME280;10165;42.662;23.260;2022-12-07T01:56:53;94051.50;;;9.40;66.46
20009;BME280;10165;42.662;23.260;2022-12-07T01:59:23;94048.28;;;9.46;66.68
20009;BME280;10165;42.662;23.260;2022-12-07T02:01:53;94042.97;;;9.34;66.78
20009;BME280;10165;42.662;23.260;2022-12-07T02:04:22;94038.69;;;9.18;67.19
20009;BME280;10165;42.662;23.260;2022-12-07T02:06:50;94038.75;;;8.81;68.17
20009;BME280;10165;42.662;23.260;2022-12-07T02:09:17;94034.38;;;9.01;68.64
20009;BME280;10165;42.662;23.260;2022-12-07T02:11:44;94045.19;;;8.80;68.95
20009;BME280;10165;42.662;23.260;2022-12-07T02:14:10;94042.06;;;8.90;68.77
20009;BME280;10165;42.662;23.260;2022-12-07T02:22:04;94039.06;;;8.43;70.49
20009;BME280;10165;42.662;23.260;2022-12-07T02:30:20;94029.72;;;8.86;69.37
20009;BME280;10165;42.662;23.260;2022-12-07T02:33:04;94025.66;;;8.88;68.49
20009;BME280;10165;42.662;23.260;2022-12-07T02:35:42;94029.28;;;8.96;68.53
20009;BME280;10165;42.662;23.260;2022-12-07T02:41:22;94038.50;;;8.74;68.50
20009;BME280;10165;42.662;23.260;2022-12-07T02:43:55;94036.72;;;8.90;68.77
20009;BME280;10165;42.662;23.260;2022-12-07T02:46:28;94037.72;;;8.98;68.32
20009;BME280;10165;42.662;23.260;2022-12-07T02:48:57;94030.97;;;8.88;68.34
20009;BME280;10165;42.662;23.260;2022-12-07T02:51:30;94020.53;;;8.95;67.78
20009;BME280;10165;42.662;23.260;2022-12-07T02:53:57;94012.31;;;8.88;68.03
20009;BME280;10165;42.662;23.260;2022-12-07T02:56:46;94016.00;;;7.90;71.36
20009;BME280;10165;42.662;23.260;2022-12-07T03:00:00;94015.72;;;8.28;70.69
20009;BME280;10165;42.662;23.260;2022-12-07T03:07:47;94002.34;;;8.37;69.19
20009;BME280;10165;42.662;23.260;2022-12-07T03:16:20;93999.34;;;8.62;68.43
20009;BME280;10165;42.662;23.260;2022-12-07T03:21:32;94009.78;;;8.68;68.27
20009;BME280;10165;42.662;23.260;2022-12-07T03:24:07;94011.56;;;8.76;68.17
20009;BME280;10165;42.662;23.260;2022-12-07T03:26:38;94014.28;;;9.03;67.38
20009;BME280;10165;42.662;23.260;2022-12-07T03:29:14;94016.09;;;8.87;67.46
20009;BME280;10165;42.662;23.260;2022-12-07T03:31:48;94014.75;;;8.93;67.09
20009;BME280;10165;42.662;23.260;2022-12-07T03:34:39;94011.91;;;8.62;68.27
20009;BME280;10165;42.662;23.260;2022-12-07T03:37:20;94014.31;;;8.79;67.54
20009;BME280;10165;42.662;23.260;2022-12-07T03:39:59;94013.44;;;8.75;67.47
20009;BME280;10165;42.662;23.260;2022-12-07T03:42:30;94006.34;;;8.79;67.92
20009;BME280;10165;42.662;23.260;2022-12-07T03:44:57;94010.19;;;8.82;67.41
20009;BME280;10165;42.662;23.260;2022-12-07T03:47:34;94007.47;;;8.66;67.60
20009;BME280;10165;42.662;23.260;2022-12-07T03:52:39;94009.09;;;8.71;68.02
20009;BME280;10165;42.662;23.260;2022-12-07T03:55:37;94003.56;;;8.63;67.96
20009;BME280;10165;42.662;23.260;2022-12-07T03:58:10;93997.91;;;8.77;68.16
20009;BME280;10165;42.662;23.260;2022-12-07T04:00:37;94001.47;;;8.69;68.50
20009;BME280;10165;42.662;23.260;2022-12-07T04:03:04;94000.22;;;8.67;68.90
20009;BME280;10165;42.662;23.260;2022-12-07T04:05:31;93999.25;;;8.71;69.20
20009;BME280;10165;42.662;23.260;2022-12-07T04:07:58;93993.81;;;8.68;68.89
20009;BME280;10165;42.662;23.260;2022-12-07T04:10:24;93992.50;;;8.49;69.38
20009;BME280;10165;42.662;23.260;2022-12-07T04:12:51;93990.38;;;8.67;68.83
20009;BME280;10165;42.662;23.260;2022-12-07T04:15:18;93995.00;;;8.70;68.87
20009;BME280;10165;42.662;23.260;2022-12-07T04:17:44;94000.81;;;8.60;68.68
20009;BME280;10165;42.662;23.260;2022-12-07T04:20:11;93999.03;;;8.52;69.06
20009;BME280;10165;42.662;23.260;2022-12-07T04:22:38;93997.59;;;8.54;68.84
20009;BME280;10165;42.662;23.260;2022-12-07T04:25:05;94006.78;;;8.81;68.24
20009;BME280;10165;42.662;23.260;2022-12-07T04:27:32;93995.06;;;8.46;68.08
20009;BME280;10165;42.662;23.260;2022-12-07T04:29:58;94003.72;;;8.43;68.89
20009;BME280;10165;42.662;23.260;2022-12-07T04:32:26;94001.25;;;8.50;68.79
20009;BME280;10165;42.662;23.260;2022-12-07T04:34:53;93999.28;;;8.47;69.00
20009;BME280;10165;42.662;23.260;2022-12-07T04:37:22;93997.38;;;8.47;68.80
20009;BME280;10165;42.662;23.260;2022-12-07T04:39:48;94001.69;;;8.64;68.37
20009;BME280;10165;42.662;23.260;2022-12-07T04:42:15;94007.00;;;8.52;68.94
20009;BME280;10165;42.662;23.260;2022-12-07T04:44:41;94010.13;;;8.54;68.76
20009;BME280;10165;42.662;23.260;2022-12-07T04:47:08;94008.22;;;8.67;67.96
20009;BME280;10165;42.662;23.260;2022-12-07T04:49:35;94012.13;;;8.69;68.25
20009;BME280;10165;42.662;23.260;2022-12-07T04:52:02;94000.47;;;8.74;68.24
20009;BME280;10165;42.662;23.260;2022-12-07T04:54:29;94007.69;;;8.49;68.29
20009;BME280;10165;42.662;23.260;2022-12-07T04:56:55;94006.34;;;8.67;68.34
20009;BME280;10165;42.662;23.260;2022-12-07T04:59:22;94005.25;;;8.68;68.43
20009;BME280;10165;42.662;23.260;2022-12-07T05:01:49;94000.59;;;8.65;68.61
20009;BME280;10165;42.662;23.260;2022-12-07T05:04:16;94008.25;;;8.54;69.10
20009;BME280;10165;42.662;23.260;2022-12-07T05:06:44;94012.34;;;8.64;68.88
20009;BME280;10165;42.662;23.260;2022-12-07T05:09:11;94013.91;;;8.53;68.47
20009;BME280;10165;42.662;23.260;2022-12-07T05:11:38;94020.78;;;8.42;69.18
20009;BME280;10165;42.662;23.260;2022-12-07T05:14:16;94016.97;;;8.79;68.51
20009;BME280;10165;42.662;23.260;2022-12-07T05:16:44;94022.00;;;8.81;68.20
20009;BME280;10165;42.662;23.260;2022-12-07T05:19:12;94016.78;;;8.60;68.78
20009;BME280;10165;42.662;23.260;2022-12-07T05:21:39;94015.53;;;8.82;68.79
20009;BME280;10165;42.662;23.260;2022-12-07T05:24:08;94016.78;;;8.72;68.86
20009;BME280;10165;42.662;23.260;2022-12-07T05:26:34;94010.88;;;8.67;69.38
20009;BME280;10165;42.662;23.260;2022-12-07T05:29:01;94009.47;;;8.69;68.41
20009;BME280;10165;42.662;23.260;2022-12-07T05:31:28;94011.22;;;8.77;68.73
20009;BME280;10165;42.662;23.260;2022-12-07T05:33:55;94002.47;;;8.77;68.77
20009;BME280;10165;42.662;23.260;2022-12-07T05:36:22;94002.78;;;8.75;68.81
20009;BME280;10165;42.662;23.260;2022-12-07T05:38:49;94002.84;;;8.06;71.35
20009;BME280;10165;42.662;23.260;2022-12-07T05:41:17;93996.25;;;8.36;69.89
20009;BME280;10165;42.662;23.260;2022-12-07T05:44:03;93999.47;;;8.42;70.02
20009;BME280;10165;42.662;23.260;2022-12-07T05:46:30;93987.94;;;8.50;69.90
20009;BME280;10165;42.662;23.260;2022-12-07T05:48:57;93989.03;;;8.73;69.07
20009;BME280;10165;42.662;23.260;2022-12-07T05:51:24;93993.16;;;8.58;69.34
20009;BME280;10165;42.662;23.260;2022-12-07T05:53:50;93990.84;;;8.57;69.18
20009;BME280;10165;42.662;23.260;2022-12-07T05:56:17;93996.94;;;8.57;69.19
20009;BME280;10165;42.662;23.260;2022-12-07T05:58:44;93999.03;;;7.17;73.48
20009;BME280;10165;42.662;23.260;2022-12-07T06:01:29;93990.34;;;7.61;74.12
20009;BME280;10165;42.662;23.260;2022-12-07T06:03:56;93988.44;;;8.07;72.06
20009;BME280;10165;42.662;23.260;2022-12-07T06:06:23;93998.66;;;8.17;71.35
20009;BME280;10165;42.662;23.260;2022-12-07T06:08:50;93999.44;;;8.17;71.34
20009;BME280;10165;42.662;23.260;2022-12-07T06:11:17;93999.66;;;8.25;70.78
20009;BME280;10165;42.662;23.260;2022-12-07T06:14:02;94005.09;;;8.28;70.92
20009;BME280;10165;42.662;23.260;2022-12-07T06:16:29;93995.47;;;8.36;70.56
20009;BME280;10165;42.662;23.260;2022-12-07T06:18:55;94004.34;;;8.52;70.17
20009;BME280;10165;42.662;23.260;2022-12-07T06:21:22;94008.13;;;8.51;70.26
20009;BME280;10165;42.662;23.260;2022-12-07T06:23:49;94007.47;;;8.54;70.17
20009;BME280;10165;42.662;23.260;2022-12-07T06:26:16;94006.34;;;8.31;70.91
20009;BME280;10165;42.662;23.260;2022-12-07T06:28:42;94012.28;;;7.58;74.19
20009;BME280;10165;42.662;23.260;2022-12-07T06:31:09;94013.41;;;8.27;71.85
20009;BME280;10165;42.662;23.260;2022-12-07T06:33:40;94014.56;;;8.38;71.47
20009;BME280;10165;42.662;23.260;2022-12-07T06:36:07;94011.69;;;8.43;71.32
20009;BME280;10165;42.662;23.260;2022-12-07T06:38:33;94012.69;;;8.38;71.59
20009;BME280;10165;42.662;23.260;2022-12-07T06:41:00;94015.00;;;8.40;71.20
20009;BME280;10165;42.662;23.260;2022-12-07T06:43:29;94026.31;;;8.49;71.22
20009;BME280;10165;42.662;23.260;2022-12-07T06:45:56;94017.34;;;8.53;70.73
20009;BME280;10165;42.662;23.260;2022-12-07T06:48:23;94021.00;;;8.61;70.04
20009;BME280;10165;42.662;23.260;2022-12-07T06:50:49;94016.44;;;8.74;70.37
20009;BME280;10165;42.662;23.260;2022-12-07T06:53:21;94013.13;;;8.52;70.67
20009;BME280;10165;42.662;23.260;2022-12-07T06:55:47;94030.69;;;8.21;70.94
20009;BME280;10165;42.662;23.260;2022-12-07T06:58:14;94027.00;;;8.46;70.67
20009;BME280;10165;42.662;23.260;2022-12-07T07:00:41;94024.31;;;8.34;71.63
20009;BME280;10165;42.662;23.260;2022-12-07T07:03:07;94022.31;;;8.67;70.87
20009;BME280;10165;42.662;23.260;2022-12-07T07:05:34;94034.31;;;8.49;70.12
20009;BME280;10165;42.662;23.260;2022-12-07T07:08:02;94030.53;;;8.50;71.10
20009;BME280;10165;42.662;23.260;2022-12-07T07:10:49;94017.66;;;8.64;70.52
20009;BME280;10165;42.662;23.260;2022-12-07T07:13:16;94025.22;;;8.50;70.79
20009;BME280;10165;42.662;23.260;2022-12-07T07:15:42;94026.09;;;8.42;71.05
20009;BME280;10165;42.662;23.260;2022-12-07T07:18:09;94029.31;;;8.59;70.73
20009;BME280;10165;42.662;23.260;2022-12-07T07:20:36;94023.09;;;8.43;70.58
20009;BME280;10165;42.662;23.260;2022-12-07T07:23:03;94025.63;;;8.40;71.05
20009;BME280;10165;42.662;23.260;2022-12-07T07:25:31;94025.53;;;8.73;70.40
20009;BME280;10165;42.662;23.260;2022-12-07T07:27:57;94034.53;;;8.68;70.02
20009;BME280;10165;42.662;23.260;2022-12-07T07:30:25;94034.72;;;8.87;69.80
20009;BME280;10165;42.662;23.260;2022-12-07T07:32:59;94035.06;;;8.37;70.47
20009;BME280;10165;42.662;23.260;2022-12-07T07:35:27;94034.13;;;8.21;71.56
20009;BME280;10165;42.662;23.260;2022-12-07T07:37:54;94030.97;;;8.52;70.77
20009;BME280;10165;42.662;23.260;2022-12-07T07:40:21;94030.31;;;8.43;71.22
20009;BME280;10165;42.662;23.260;2022-12-07T07:42:49;94024.31;;;8.46;71.22
20009;BME280;10165;42.662;23.260;2022-12-07T07:45:17;94033.53;;;8.60;70.69
20009;BME280;10165;42.662;23.260;2022-12-07T07:47:44;94036.19;;;8.85;70.56
20009;BME280;10165;42.662;23.260;2022-12-07T07:50:11;94033.84;;;8.95;69.88
20009;BME280;10165;42.662;23.260;2022-12-07T07:52:38;94036.28;;;8.88;69.49
20009;BME280;10165;42.662;23.260;2022-12-07T07:55:05;94030.44;;;8.58;70.37
20009;BME280;10165;42.662;23.260;2022-12-07T07:57:35;94034.97;;;8.58;70.23
20009;BME280;10165;42.662;23.260;2022-12-07T08:00:05;94028.63;;;8.75;70.30
20009;BME280;10165;42.662;23.260;2022-12-07T08:02:32;94036.75;;;8.66;70.15
20009;BME280;10165;42.662;23.260;2022-12-07T08:04:58;94030.31;;;8.79;70.63
20009;BME280;10165;42.662;23.260;2022-12-07T08:07:27;94032.50;;;8.89;69.82
20009;BME280;10165;42.662;23.260;2022-12-07T08:09:54;94019.66;;;8.79;70.70
20009;BME280;10165;42.662;23.260;2022-12-07T08:12:20;94022.78;;;8.81;69.72
20009;BME280;10165;42.662;23.260;2022-12-07T08:14:47;94028.63;;;8.99;69.17
20009;BME280;10165;42.662;23.260;2022-12-07T08:17:14;94020.88;;;8.70;70.36
20009;BME280;10165;42.662;23.260;2022-12-07T08:19:41;94021.63;;;8.94;69.82
20009;BME280;10165;42.662;23.260;2022-12-07T08:22:07;94018.53;;;8.92;69.39
20009;BME280;10165;42.662;23.260;2022-12-07T08:24:35;94020.25;;;8.03;72.26
20009;BME280;10165;42.662;23.260;2022-12-07T08:27:03;94033.81;;;8.23;72.21
20009;BME280;10165;42.662;23.260;2022-12-07T08:29:29;94017.97;;;8.62;71.14
20009;BME280;10165;42.662;23.260;2022-12-07T08:31:56;94019.84;;;8.86;69.73
20009;BME280;10165;42.662;23.260;2022-12-07T08:34:23;94031.63;;;8.37;71.12
20009;BME280;10165;42.662;23.260;2022-12-07T08:36:49;94026.78;;;8.39;71.75
20009;BME280;10165;42.662;23.260;2022-12-07T08:39:16;94022.44;;;8.46;71.85
20009;BME280;10165;42.662;23.260;2022-12-07T08:41:58;94022.09;;;8.84;70.38
20009;BME280;10165;42.662;23.260;2022-12-07T08:44:25;94024.41;;;8.98;69.85
20009;BME280;10165;42.662;23.260;2022-12-07T08:47:02;94012.72;;;9.02;70.11
20009;BME280;10165;42.662;23.260;2022-12-07T08:49:36;94013.84;;;9.01;69.37
20009;BME280;10165;42.662;23.260;2022-12-07T08:52:05;94012.06;;;9.05;69.54
20009;BME280;10165;42.662;23.260;2022-12-07T08:54:34;94011.06;;;8.98;68.88
20009;BME280;10165;42.662;23.260;2022-12-07T08:57:02;94006.84;;;9.09;69.35
20009;BME280;10165;42.662;23.260;2022-12-07T08:59:29;94005.47;;;9.27;68.99
20009;BME280;10165;42.662;23.260;2022-12-07T09:01:56;94003.31;;;9.33;68.42
20009;BME280;10165;42.662;23.260;2022-12-07T09:04:23;94004.53;;;8.95;69.43
20009;BME280;10165;42.662;23.260;2022-12-07T09:06:50;93999.44;;;8.90;70.10
20009;BME280;10165;42.662;23.260;2022-12-07T09:09:17;93990.69;;;9.30;69.16
20009;BME280;10165;42.662;23.260;2022-12-07T09:11:43;93980.00;;;9.02;69.93
20009;BME280;10165;42.662;23.260;2022-12-07T09:14:12;93984.81;;;8.84;70.66
20009;BME280;10165;42.662;23.260;2022-12-07T09:16:39;93989.81;;;9.26;69.52
20009;BME280;10165;42.662;23.260;2022-12-07T09:19:06;93984.59;;;9.57;69.26
20009;BME280;10165;42.662;23.260;2022-12-07T09:21:34;93988.22;;;9.65;67.98
20009;BME280;10165;42.662;23.260;2022-12-07T09:24:00;93995.09;;;8.98;68.80
20009;BME280;10165;42.662;23.260;2022-12-07T09:26:27;93985.59;;;8.85;69.55
20009;BME280;10165;42.662;23.260;2022-12-07T09:28:53;93976.81;;;8.96;69.88
20009;BME280;10165;42.662;23.260;2022-12-07T09:31:20;93980.44;;;9.04;69.68
20009;BME280;10165;42.662;23.260;2022-12-07T09:34:07;93970.03;;;9.27;68.71
20009;BME280;10165;42.662;23.260;2022-12-07T09:36:34;93963.63;;;9.43;68.51
20009;BME280;10165;42.662;23.260;2022-12-07T09:39:01;93967.56;;;8.94;69.68
20009;BME280;10165;42.662;23.260;2022-12-07T09:41:30;93951.88;;;9.44;68.72
20009;BME280;10165;42.662;23.260;2022-12-07T09:44:23;93959.75;;;8.73;70.32
20009;BME280;10165;42.662;23.260;2022-12-07T09:46:50;93952.25;;;9.31;68.90
20009;BME280;10165;42.662;23.260;2022-12-07T09:49:21;93954.44;;;9.84;67.68
20009;BME280;10165;42.662;23.260;2022-12-07T09:52:20;93947.88;;;9.82;67.16
20009;BME280;10165;42.662;23.260;2022-12-07T09:54:51;93950.41;;;9.90;66.44
20009;BME280;10165;42.662;23.260;2022-12-07T09:57:29;93959.28;;;10.10;65.75
20009;BME280;10165;42.662;23.260;2022-12-07T10:00:00;93954.63;;;9.48;67.60
20009;BME280;10165;42.662;23.260;2022-12-07T10:02:36;93951.72;;;9.25;68.74
20009;BME280;10165;42.662;23.260;2022-12-07T10:05:05;93948.53;;;8.68;70.21
20009;BME280;10165;42.662;23.260;2022-12-07T10:07:32;93945.88;;;9.20;70.13
20009;BME280;10165;42.662;23.260;2022-12-07T10:10:02;93940.25;;;9.96;67.28
20009;BME280;10165;42.662;23.260;2022-12-07T10:12:29;93942.91;;;9.80;66.65
20009;BME280;10165;42.662;23.260;2022-12-07T10:15:01;93934.81;;;9.33;67.88
20009;BME280;10165;42.662;23.260;2022-12-07T10:17:48;93928.25;;;9.74;67.84
20009;BME280;10165;42.662;23.260;2022-12-07T10:20:26;93926.28;;;9.71;67.52
20009;BME280;10165;42.662;23.260;2022-12-07T10:23:04;93934.56;;;9.97;66.69
20009;BME280;10165;42.662;23.260;2022-12-07T10:25:34;93919.81;;;10.50;65.40
20009;BME280;10165;42.662;23.260;2022-12-07T10:28:11;93912.88;;;10.81;64.03
20009;BME280;10165;42.662;23.260;2022-12-07T10:30:57;93907.69;;;10.53;65.51
20009;BME280;10165;42.662;23.260;2022-12-07T10:33:37;93901.44;;;10.65;63.63
20009;BME280;10165;42.662;23.260;2022-12-07T10:36:18;93901.78;;;10.63;64.40
20009;BME280;10165;42.662;23.260;2022-12-07T10:38:49;93895.41;;;10.33;65.42
20009;BME280;10165;42.662;23.260;2022-12-07T10:41:16;93892.50;;;10.57;65.29
20009;BME280;10165;42.662;23.260;2022-12-07T10:43:47;93885.72;;;10.79;65.02
20009;BME280;10165;42.662;23.260;2022-12-07T10:46:44;93889.91;;;10.61;64.70
20009;BME280;10165;42.662;23.260;2022-12-07T10:55:26;93876.59;;;10.80;64.65
20009;BME280;10165;42.662;23.260;2022-12-07T11:16:56;93853.31;;;10.80;62.59
20009;BME280;10165;42.662;23.260;2022-12-07T11:22:20;93850.06;;;10.90;62.22
20009;BME280;10165;42.662;23.260;2022-12-07T11:25:15;93844.00;;;11.13;61.33
20009;BME280;10165;42.662;23.260;2022-12-07T11:30:34;93831.44;;;11.36;60.72
20009;BME280;10165;42.662;23.260;2022-12-07T11:33:12;93823.91;;;11.19;61.35
20009;BME280;10165;42.662;23.260;2022-12-07T11:38:42;93823.47;;;11.17;61.34
20009;BME280;10165;42.662;23.260;2022-12-07T11:41:10;93827.03;;;11.24;61.48
20009;BME280;10165;42.662;23.260;2022-12-07T11:46:24;93820.66;;;11.10;61.79
20009;BME280;10165;42.662;23.260;2022-12-07T11:49:12;93823.56;;;11.01;61.51
20009;BME280;10165;42.662;23.260;2022-12-07T11:51:42;93811.53;;;11.75;60.00
20009;BME280;10165;42.662;23.260;2022-12-07T11:54:15;93817.09;;;11.44;60.32
20009;BME280;10165;42.662;23.260;2022-12-07T11:56:45;93805.44;;;11.33;61.23
20009;BME280;10165;42.662;23.260;2022-12-07T11:59:23;93810.06;;;11.59;60.16
20009;BME280;10165;42.662;23.260;2022-12-07T12:01:56;93812.63;;;11.97;58.66
20009;BME280;10165;42.662;23.260;2022-12-07T12:04:30;93810.22;;;11.92;58.91
20009;BME280;10165;42.662;23.260;2022-12-07T12:06:59;93800.06;;;12.01;58.96
20009;BME280;10165;42.662;23.260;2022-12-07T12:10:02;93786.16;;;11.69;59.18
20009;BME280;10165;42.662;23.260;2022-12-07T12:21:38;93773.66;;;12.00;58.07
20009;BME280;10165;42.662;23.260;2022-12-07T12:24:18;93779.13;;;11.80;58.85
20009;BME280;10165;42.662;23.260;2022-12-07T12:26:53;93772.03;;;11.46;59.59
20009;BME280;10165;42.662;23.260;2022-12-07T12:29:31;93767.63;;;11.57;60.33
20009;BME280;10165;42.662;23.260;2022-12-07T12:32:12;93769.44;;;11.49;60.21
20009;BME280;10165;42.662;23.260;2022-12-07T12:34:58;93759.53;;;11.31;61.02
20009;BME280;10165;42.662;23.260;2022-12-07T12:42:56;93746.13;;;11.99;58.86
20009;BME280;10165;42.662;23.260;2022-12-07T12:45:30;93750.38;;;12.30;57.71
20009;BME280;10165;42.662;23.260;2022-12-07T12:48:02;93747.78;;;12.07;58.05
20009;BME280;10165;42.662;23.260;2022-12-07T12:50:36;93752.59;;;12.24;58.19
20009;BME280;10165;42.662;23.260;2022-12-07T12:55:57;93755.28;;;12.58;57.51
20009;BME280;10165;42.662;23.260;2022-12-07T12:58:36;93757.63;;;12.59;57.00
20009;BME280;10165;42.662;23.260;2022-12-07T13:01:33;93750.47;;;11.84;59.33
20009;BME280;10165;42.662;23.260;2022-12-07T13:04:12;93751.03;;;12.23;58.19
20009;BME280;10165;42.662;23.260;2022-12-07T13:06:41;93755.41;;;12.65;57.07
20009;BME280;10165;42.662;23.260;2022-12-07T13:09:36;93753.34;;;12.55;56.77
20009;BME280;10165;42.662;23.260;2022-12-07T13:12:14;93757.50;;;12.49;56.48
20009;BME280;10165;42.662;23.260;2022-12-07T13:14:58;93749.63;;;12.03;57.67
20009;BME280;10165;42.662;23.260;2022-12-07T13:20:05;93759.78;;;12.20;57.31
20009;BME280;10165;42.662;23.260;2022-12-07T13:22:43;93762.72;;;12.38;57.25
20009;BME280;10165;42.662;23.260;2022-12-07T13:25:42;93755.72;;;12.30;56.38
20009;BME280;10165;42.662;23.260;2022-12-07T13:28:16;93757.94;;;12.24;56.80
20009;BME280;10165;42.662;23.260;2022-12-07T13:30:58;93755.19;;;11.91;57.60
20009;BME280;10165;42.662;23.260;2022-12-07T13:33:28;93750.28;;;11.96;56.75
20009;BME280;10165;42.662;23.260;2022-12-07T13:35:56;93756.38;;;12.23;57.00
20009;BME280;10165;42.662;23.260;2022-12-07T13:38:31;93755.06;;;12.10;57.15
20009;BME280;10165;42.662;23.260;2022-12-07T13:41:15;93751.06;;;12.27;56.79
20009;BME280;10165;42.662;23.260;2022-12-07T13:49:23;93735.50;;;12.06;58.47
20009;BME280;10165;42.662;23.260;2022-12-07T13:51:51;93733.16;;;12.31;58.07
20009;BME280;10165;42.662;23.260;2022-12-07T13:54:18;93737.41;;;12.35;58.02
20009;BME280;10165;42.662;23.260;2022-12-07T13:56:52;93739.28;;;12.02;58.24
20009;BME280;10165;42.662;23.260;2022-12-07T13:59:21;93739.97;;;12.25;58.12
20009;BME280;10165;42.662;23.260;2022-12-07T14:01:50;93738.94;;;12.33;57.95
20009;BME280;10165;42.662;23.260;2022-12-07T14:04:40;93740.78;;;12.29;57.93
20009;BME280;10165;42.662;23.260;2022-12-07T14:07:21;93744.84;;;12.19;58.16
20009;BME280;10165;42.662;23.260;2022-12-07T14:10:00;93742.78;;;12.35;57.69
20009;BME280;10165;42.662;23.260;2022-12-07T14:12:29;93739.75;;;12.07;58.84
20009;BME280;10165;42.662;23.260;2022-12-07T14:14:57;93755.59;;;12.23;58.23
20009;BME280;10165;42.662;23.260;2022-12-07T14:17:26;93755.22;;;12.21;58.18
20009;BME280;10165;42.662;23.260;2022-12-07T14:19:58;93754.09;;;12.22;58.16
20009;BME280;10165;42.662;23.260;2022-12-07T14:22:33;93756.25;;;12.13;58.44
20009;BME280;10165;42.662;23.260;2022-12-07T14:27:50;93759.84;;;11.97;58.44
20009;BME280;10165;42.662;23.260;2022-12-07T14:30:19;93751.47;;;11.99;58.84
20009;BME280;10165;42.662;23.260;2022-12-07T14:32:48;93759.81;;;11.94;58.99
20009;BME280;10165;42.662;23.260;2022-12-07T14:35:18;93762.00;;;11.88;59.25
20009;BME280;10165;42.662;23.260;2022-12-07T14:37:47;93757.38;;;11.85;59.47
20009;BME280;10165;42.662;23.260;2022-12-07T14:40:25;93745.84;;;11.81;59.51
20009;BME280;10165;42.662;23.260;2022-12-07T14:43:10;93749.38;;;11.63;59.79
20009;BME280;10165;42.662;23.260;2022-12-07T14:45:38;93751.31;;;11.66;60.05
20009;BME280;10165;42.662;23.260;2022-12-07T14:48:07;93754.06;;;11.69;59.97
20009;BME280;10165;42.662;23.260;2022-12-07T14:50:57;93750.09;;;11.60;60.56
20009;BME280;10165;42.662;23.260;2022-12-07T14:53:48;93753.00;;;11.51;60.61
20009;BME280;10165;42.662;23.260;2022-12-07T14:56:23;93749.94;;;11.49;60.97
20009;BME280;10165;42.662;23.260;2022-12-07T14:58:50;93757.47;;;11.43;61.01
20009;BME280;10165;42.662;23.260;2022-12-07T15:01:16;93764.38;;;11.44;61.06
20009;BME280;10165;42.662;23.260;2022-12-07T15:03:43;93761.63;;;11.41;60.99
20009;BME280;10165;42.662;23.260;2022-12-07T15:06:14;93759.63;;;11.34;60.82
20009;BME280;10165;42.662;23.260;2022-12-07T15:08:41;93762.16;;;11.27;61.27
20009;BME280;10165;42.662;23.260;2022-12-07T15:11:12;93761.16;;;11.13;61.36